sensor_id;sensor_type;location;lat;lon;timestamp;P1;durP1;ratioP1;P2;durP2;ratioP2
9767;SDS011;4923;52.520;13.494;2023-02-15T00:01:09;29.55;;;15.55;;
9767;SDS011;4923;52.520;13.494;2023-02-15T00:03:57;30.65;;;15.98;;
9767;SDS011;4923;52.520;13.494;2023-02-15T00:06:44;25.88;;;15.27;;
9767;SDS011;4923;52.520;13.494;2023-02-15T00:09:31;27.10;;;14.95;;
9767;SDS011;4923;52.520;13.494;2023-02-15T00:12:19;26.92;;;16.00;;
9767;SDS011;4923;52.520;13.494;2023-02-15T00:15:06;28.45;;;15.90;;
9767;SDS011;4923;52.520;13.494;2023-02-15T00:17:53;26.95;;;15.55;;
9767;SDS011;4923;52.520;13.494;2023-02-15T00:20:40;31.42;;;15.38;;
9767;SDS011;4923;52.520;13.494;2023-02-15T00:23:27;29.70;;;16.05;;
9767;SDS011;4923;52.520;13.494;2023-02-15T00:26:14;22.65;;;14.85;;
9767;SDS011;4923;52.520;13.494;2023-02-15T00:29:02;26.45;;;16.58;;
9767;SDS011;4923;52.520;13.494;2023-02-15T00:31:49;32.53;;;17.10;;
9767;SDS011;4923;52.520;13.494;2023-02-15T00:34:37;28.70;;;15.70;;
9767;SDS011;4923;52.520;13.494;2023-02-15T00:37:24;29.42;;;15.65;;
9767;SDS011;4923;52.520;13.494;2023-02-15T00:40:11;37.35;;;17.35;;
9767;SDS011;4923;52.520;13.494;2023-02-15T00:42:58;34.90;;;17.10;;
9767;SDS011;4923;52.520;13.494;2023-02-15T00:45:47;30.70;;;16.52;;
9767;SDS011;4923;52.520;13.494;2023-02-15T00:48:34;32.22;;;16.85;;
9767;SDS011;4923;52.520;13.494;2023-02-15T00:51:21;36.53;;;18.25;;
9767;SDS011;4923;52.520;13.494;2023-02-15T00:54:08;34.28;;;18.00;;
9767;SDS011;4923;52.520;13.494;2023-02-15T00:56:54;29.40;;;16.55;;
9767;SDS011;4923;52.520;13.494;2023-02-15T00:59:41;31.60;;;17.40;;
9767;SDS011;4923;52.520;13.494;2023-02-15T01:02:29;38.95;;;19.52;;
9767;SDS011;4923;52.520;13.494;2023-02-15T01:05:16;35.05;;;17.27;;
9767;SDS011;4923;52.520;13.494;2023-02-15T01:08:03;36.20;;;16.70;;
9767;SDS011;4923;52.520;13.494;2023-02-15T01:10:50;38.28;;;19.70;;
9767;SDS011;4923;52.520;13.494;2023-02-15T01:13:37;31.55;;;16.63;;
9767;SDS011;4923;52.520;13.494;2023-02-15T01:16:25;51.92;;;18.55;;
9767;SDS011;4923;52.520;13.494;2023-02-15T01:19:15;44.00;;;18.48;;
9767;SDS011;4923;52.520;13.494;2023-02-15T01:22:01;42.53;;;17.77;;
9767;SDS011;4923;52.520;13.494;2023-02-15T01:24:48;33.70;;;17.65;;
9767;SDS011;4923;52.520;13.494;2023-02-15T01:27:35;37.38;;;17.13;;
9767;SDS011;4923;52.520;13.494;2023-02-15T01:30:22;33.25;;;17.10;;
9767;SDS011;4923;52.520;13.494;2023-02-15T01:33:09;37.38;;;16.75;;
9767;SDS011;4923;52.520;13.494;2023-02-15T01:36:04;35.55;;;17.50;;
9767;SDS011;4923;52.520;13.494;2023-02-15T01:38:51;36.03;;;17.45;;
9767;SDS011;4923;52.520;13.494;2023-02-15T01:41:38;36.08;;;19.10;;
9767;SDS011;4923;52.520;13.494;2023-02-15T01:44:45;38.47;;;19.20;;
9767;SDS011;4923;52.520;13.494;2023-02-15T01:47:34;43.40;;;18.35;;
9767;SDS011;4923;52.520;13.494;2023-02-15T01:50:26;39.88;;;19.00;;
9767;SDS011;4923;52.520;13.494;2023-02-15T01:53:19;38.60;;;18.52;;
9767;SDS011;4923;52.520;13.494;2023-02-15T01:56:11;45.15;;;19.30;;
9767;SDS011;4923;52.520;13.494;2023-02-15T01:59:03;36.03;;;16.95;;
9767;SDS011;4923;52.520;13.494;2023-02-15T02:01:54;40.10;;;19.15;;
9767;SDS011;4923;52.520;13.494;2023-02-15T02:04:45;37.17;;;17.73;;
9767;SDS011;4923;52.520;13.494;2023-02-15T02:07:36;40.28;;;18.27;;
9767;SDS011;4923;52.520;13.494;2023-02-15T02:10:28;37.95;;;19.55;;
9767;SDS011;4923;52.520;13.494;2023-02-15T02:13:16;55.30;;;20.85;;
9767;SDS011;4923;52.520;13.494;2023-02-15T02:16:04;43.17;;;21.02;;
9767;SDS011;4923;52.520;13.494;2023-02-15T02:19:05;38.17;;;18.63;;
9767;SDS011;4923;52.520;13.494;2023-02-15T02:22:21;43.15;;;18.67;;
9767;SDS011;4923;52.520;13.494;2023-02-15T02:25:56;43.67;;;21.77;;
9767;SDS011;4923;52.520;13.494;2023-02-15T02:32:30;55.65;;;22.55;;
9767;SDS011;4923;52.520;13.494;2023-02-15T02:35:42;46.85;;;21.30;;
9767;SDS011;4923;52.520;13.494;2023-02-15T02:38:37;49.67;;;22.17;;
9767;SDS011;4923;52.520;13.494;2023-02-15T02:41:35;55.60;;;25.08;;
9767;SDS011;4923;52.520;13.494;2023-02-15T02:44:30;65.47;;;26.23;;
9767;SDS011;4923;52.520;13.494;2023-02-15T02:47:23;57.20;;;23.77;;
9767;SDS011;4923;52.520;13.494;2023-02-15T02:50:17;50.63;;;22.88;;
9767;SDS011;4923;52.520;13.494;2023-02-15T02:53:09;60.30;;;26.02;;
9767;SDS011;4923;52.520;13.494;2023-02-15T02:55:58;65.43;;;24.88;;
9767;SDS011;4923;52.520;13.494;2023-02-15T02:58:48;61.05;;;24.83;;
9767;SDS011;4923;52.520;13.494;2023-02-15T03:01:39;61.55;;;25.20;;
9767;SDS011;4923;52.520;13.494;2023-02-15T03:04:30;65.55;;;24.42;;
9767;SDS011;4923;52.520;13.494;2023-02-15T03:07:21;64.13;;;26.10;;
9767;SDS011;4923;52.520;13.494;2023-02-15T03:10:11;60.03;;;24.10;;
9767;SDS011;4923;52.520;13.494;2023-02-15T03:12:58;52.03;;;23.35;;
9767;SDS011;4923;52.520;13.494;2023-02-15T03:15:45;60.83;;;25.40;;
9767;SDS011;4923;52.520;13.494;2023-02-15T03:18:51;64.80;;;23.23;;
9767;SDS011;4923;52.520;13.494;2023-02-15T03:21:44;63.72;;;24.13;;
9767;SDS011;4923;52.520;13.494;2023-02-15T03:24:35;64.68;;;25.40;;
9767;SDS011;4923;52.520;13.494;2023-02-15T03:27:28;65.45;;;27.02;;
9767;SDS011;4923;52.520;13.494;2023-02-15T03:30:20;56.08;;;23.38;;
9767;SDS011;4923;52.520;13.494;2023-02-15T03:33:08;63.47;;;23.67;;
9767;SDS011;4923;52.520;13.494;2023-02-15T03:35:58;63.08;;;26.13;;
9767;SDS011;4923;52.520;13.494;2023-02-15T03:38:49;67.55;;;25.08;;
9767;SDS011;4923;52.520;13.494;2023-02-15T03:41:46;64.60;;;24.98;;
9767;SDS011;4923;52.520;13.494;2023-02-15T03:44:45;65.68;;;26.50;;
9767;SDS011;4923;52.520;13.494;2023-02-15T03:47:38;61.97;;;26.02;;
9767;SDS011;4923;52.520;13.494;2023-02-15T03:50:29;61.08;;;25.30;;
9767;SDS011;4923;52.520;13.494;2023-02-15T03:53:35;57.05;;;23.38;;
9767;SDS011;4923;52.520;13.494;2023-02-15T03:56:23;54.45;;;22.73;;
9767;SDS011;4923;52.520;13.494;2023-02-15T03:59:10;58.50;;;25.00;;
9767;SDS011;4923;52.520;13.494;2023-02-15T04:02:18;63.08;;;22.33;;
9767;SDS011;4923;52.520;13.494;2023-02-15T04:05:08;56.13;;;22.90;;
9767;SDS011;4923;52.520;13.494;2023-02-15T04:07:55;67.18;;;26.52;;
9767;SDS011;4923;52.520;13.494;2023-02-15T04:10:42;69.88;;;23.15;;
9767;SDS011;4923;52.520;13.494;2023-02-15T04:13:41;64.07;;;24.77;;
9767;SDS011;4923;52.520;13.494;2023-02-15T04:16:28;70.43;;;25.52;;
9767;SDS011;4923;52.520;13.494;2023-02-15T04:19:15;64.25;;;23.95;;
9767;SDS011;4923;52.520;13.494;2023-02-15T04:22:20;56.20;;;24.15;;
9767;SDS011;4923;52.520;13.494;2023-02-15T04:25:24;63.35;;;22.02;;
9767;SDS011;4923;52.520;13.494;2023-02-15T04:28:11;57.60;;;23.33;;
9767;SDS011;4923;52.520;13.494;2023-02-15T04:30:58;61.55;;;22.85;;
9767;SDS011;4923;52.520;13.494;2023-02-15T04:33:44;57.83;;;22.35;;
9767;SDS011;4923;52.520;13.494;2023-02-15T04:36:34;69.38;;;25.02;;
9767;SDS011;4923;52.520;13.494;2023-02-15T04:39:22;62.67;;;22.02;;
9767;SDS011;4923;52.520;13.494;2023-02-15T04:42:08;61.88;;;23.60;;
9767;SDS011;4923;52.520;13.494;2023-02-15T04:44:55;60.13;;;24.17;;
9767;SDS011;4923;52.520;13.494;2023-02-15T04:47:42;63.55;;;22.85;;
9767;SDS011;4923;52.520;13.494;2023-02-15T04:50:29;57.53;;;22.15;;
9767;SDS011;4923;52.520;13.494;2023-02-15T04:53:17;62.80;;;22.15;;
9767;SDS011;4923;52.520;13.494;2023-02-15T04:56:04;56.75;;;21.48;;
9767;SDS011;4923;52.520;13.494;2023-02-15T04:58:51;51.83;;;21.13;;
9767;SDS011;4923;52.520;13.494;2023-02-15T05:01:37;54.92;;;22.48;;
9767;SDS011;4923;52.520;13.494;2023-02-15T05:04:25;54.28;;;22.02;;
9767;SDS011;4923;52.520;13.494;2023-02-15T05:07:11;55.05;;;22.75;;
9767;SDS011;4923;52.520;13.494;2023-02-15T05:10:01;62.30;;;22.10;;
9767;SDS011;4923;52.520;13.494;2023-02-15T05:12:48;61.63;;;23.05;;
9767;SDS011;4923;52.520;13.494;2023-02-15T05:15:35;58.63;;;23.50;;
9767;SDS011;4923;52.520;13.494;2023-02-15T05:18:21;59.30;;;24.08;;
9767;SDS011;4923;52.520;13.494;2023-02-15T05:21:08;59.95;;;23.98;;
9767;SDS011;4923;52.520;13.494;2023-02-15T05:23:55;56.40;;;23.52;;
9767;SDS011;4923;52.520;13.494;2023-02-15T05:26:44;61.70;;;22.60;;
9767;SDS011;4923;52.520;13.494;2023-02-15T05:29:48;60.42;;;23.42;;
9767;SDS011;4923;52.520;13.494;2023-02-15T05:32:35;62.20;;;23.60;;
9767;SDS011;4923;52.520;13.494;2023-02-15T05:35:22;59.65;;;22.45;;
9767;SDS011;4923;52.520;13.494;2023-02-15T05:38:09;54.35;;;22.60;;
9767;SDS011;4923;52.520;13.494;2023-02-15T05:40:56;56.03;;;22.48;;
9767;SDS011;4923;52.520;13.494;2023-02-15T05:43:44;56.72;;;23.95;;
9767;SDS011;4923;52.520;13.494;2023-02-15T05:46:31;72.75;;;23.50;;
9767;SDS011;4923;52.520;13.494;2023-02-15T05:49:18;58.28;;;23.88;;
9767;SDS011;4923;52.520;13.494;2023-02-15T05:52:05;60.47;;;24.60;;
9767;SDS011;4923;52.520;13.494;2023-02-15T05:54:53;54.85;;;23.08;;
9767;SDS011;4923;52.520;13.494;2023-02-15T05:57:40;64.85;;;24.25;;
9767;SDS011;4923;52.520;13.494;2023-02-15T06:00:28;69.82;;;26.17;;
9767;SDS011;4923;52.520;13.494;2023-02-15T06:03:15;78.30;;;26.00;;
9767;SDS011;4923;52.520;13.494;2023-02-15T06:06:02;73.55;;;26.98;;
9767;SDS011;4923;52.520;13.494;2023-02-15T06:08:49;96.95;;;26.98;;
9767;SDS011;4923;52.520;13.494;2023-02-15T06:11:36;101.95;;;26.55;;
9767;SDS011;4923;52.520;13.494;2023-02-15T06:14:23;104.15;;;26.23;;
9767;SDS011;4923;52.520;13.494;2023-02-15T06:17:11;73.75;;;24.20;;
9767;SDS011;4923;52.520;13.494;2023-02-15T06:19:58;64.85;;;25.80;;
9767;SDS011;4923;52.520;13.494;2023-02-15T06:22:45;79.25;;;23.73;;
9767;SDS011;4923;52.520;13.494;2023-02-15T06:25:32;113.38;;;24.38;;
9767;SDS011;4923;52.520;13.494;2023-02-15T06:28:19;113.70;;;26.67;;
9767;SDS011;4923;52.520;13.494;2023-02-15T06:31:06;75.50;;;22.42;;
9767;SDS011;4923;52.520;13.494;2023-02-15T06:33:54;100.88;;;25.92;;
9767;SDS011;4923;52.520;13.494;2023-02-15T06:36:46;76.38;;;24.30;;
9767;SDS011;4923;52.520;13.494;2023-02-15T06:39:32;62.88;;;23.10;;
9767;SDS011;4923;52.520;13.494;2023-02-15T06:42:20;199.90;;;28.08;;
9767;SDS011;4923;52.520;13.494;2023-02-15T06:45:08;85.72;;;22.60;;
9767;SDS011;4923;52.520;13.494;2023-02-15T06:47:55;134.23;;;24.65;;
9767;SDS011;4923;52.520;13.494;2023-02-15T06:50:43;191.30;;;26.40;;
9767;SDS011;4923;52.520;13.494;2023-02-15T06:53:30;96.93;;;21.38;;
9767;SDS011;4923;52.520;13.494;2023-02-15T06:56:17;127.30;;;22.80;;
9767;SDS011;4923;52.520;13.494;2023-02-15T06:59:04;165.27;;;24.05;;
9767;SDS011;4923;52.520;13.494;2023-02-15T07:01:51;196.57;;;26.63;;
9767;SDS011;4923;52.520;13.494;2023-02-15T07:04:37;107.15;;;23.85;;
9767;SDS011;4923;52.520;13.494;2023-02-15T07:07:26;90.22;;;22.88;;
9767;SDS011;4923;52.520;13.494;2023-02-15T07:10:12;126.10;;;26.25;;
9767;SDS011;4923;52.520;13.494;2023-02-15T07:12:59;175.48;;;24.77;;
9767;SDS011;4923;52.520;13.494;2023-02-15T07:15:47;146.27;;;23.85;;
9767;SDS011;4923;52.520;13.494;2023-02-15T07:18:34;84.75;;;22.73;;
9767;SDS011;4923;52.520;13.494;2023-02-15T07:21:21;106.57;;;22.05;;
9767;SDS011;4923;52.520;13.494;2023-02-15T07:24:09;204.52;;;26.75;;
9767;SDS011;4923;52.520;13.494;2023-02-15T07:26:56;105.20;;;22.27;;
9767;SDS011;4923;52.520;13.494;2023-02-15T07:29:43;385.92;;;33.38;;
9767;SDS011;4923;52.520;13.494;2023-02-15T07:32:30;111.97;;;22.20;;
9767;SDS011;4923;52.520;13.494;2023-02-15T07:35:18;138.35;;;22.83;;
9767;SDS011;4923;52.520;13.494;2023-02-15T07:38:05;177.05;;;24.55;;
9767;SDS011;4923;52.520;13.494;2023-02-15T07:40:58;100.93;;;23.75;;
9767;SDS011;4923;52.520;13.494;2023-02-15T07:43:45;67.00;;;21.40;;
9767;SDS011;4923;52.520;13.494;2023-02-15T07:46:32;184.20;;;24.98;;
9767;SDS011;4923;52.520;13.494;2023-02-15T07:49:19;68.75;;;20.95;;
9767;SDS011;4923;52.520;13.494;2023-02-15T07:52:06;61.90;;;21.35;;
9767;SDS011;4923;52.520;13.494;2023-02-15T07:54:53;82.78;;;22.23;;
9767;SDS011;4923;52.520;13.494;2023-02-15T07:57:42;73.43;;;21.80;;
9767;SDS011;4923;52.520;13.494;2023-02-15T08:00:30;114.53;;;22.63;;
9767;SDS011;4923;52.520;13.494;2023-02-15T08:03:37;90.35;;;21.17;;
9767;SDS011;4923;52.520;13.494;2023-02-15T08:06:25;108.95;;;22.17;;
9767;SDS011;4923;52.520;13.494;2023-02-15T08:09:14;89.30;;;21.45;;
9767;SDS011;4923;52.520;13.494;2023-02-15T08:12:00;161.93;;;21.40;;
9767;SDS011;4923;52.520;13.494;2023-02-15T08:14:49;87.53;;;20.80;;
9767;SDS011;4923;52.520;13.494;2023-02-15T08:17:36;127.18;;;22.73;;
9767;SDS011;4923;52.520;13.494;2023-02-15T08:20:23;80.28;;;22.23;;
9767;SDS011;4923;52.520;13.494;2023-02-15T08:23:10;145.55;;;23.17;;
9767;SDS011;4923;52.520;13.494;2023-02-15T08:25:59;83.05;;;21.42;;
9767;SDS011;4923;52.520;13.494;2023-02-15T08:28:46;87.28;;;20.05;;
9767;SDS011;4923;52.520;13.494;2023-02-15T08:31:35;45.63;;;19.55;;
9767;SDS011;4923;52.520;13.494;2023-02-15T08:34:23;58.03;;;22.05;;
9767;SDS011;4923;52.520;13.494;2023-02-15T08:37:10;75.25;;;24.00;;
9767;SDS011;4923;52.520;13.494;2023-02-15T08:39:57;50.65;;;19.52;;
9767;SDS011;4923;52.520;13.494;2023-02-15T08:42:44;74.03;;;22.70;;
9767;SDS011;4923;52.520;13.494;2023-02-15T08:45:31;60.50;;;21.17;;
9767;SDS011;4923;52.520;13.494;2023-02-15T08:48:19;82.25;;;20.00;;
9767;SDS011;4923;52.520;13.494;2023-02-15T08:51:07;63.05;;;21.67;;
9767;SDS011;4923;52.520;13.494;2023-02-15T08:53:56;60.42;;;21.40;;
9767;SDS011;4923;52.520;13.494;2023-02-15T08:56:46;52.03;;;20.25;;
9767;SDS011;4923;52.520;13.494;2023-02-15T08:59:33;58.33;;;21.10;;
9767;SDS011;4923;52.520;13.494;2023-02-15T09:02:20;56.38;;;20.98;;
9767;SDS011;4923;52.520;13.494;2023-02-15T09:05:08;55.20;;;21.77;;
9767;SDS011;4923;52.520;13.494;2023-02-15T09:07:55;54.78;;;22.73;;
9767;SDS011;4923;52.520;13.494;2023-02-15T09:10:42;46.42;;;20.98;;
9767;SDS011;4923;52.520;13.494;2023-02-15T09:13:29;42.05;;;20.40;;
9767;SDS011;4923;52.520;13.494;2023-02-15T09:16:16;43.97;;;20.40;;
9767;SDS011;4923;52.520;13.494;2023-02-15T09:19:03;49.17;;;21.70;;
9767;SDS011;4923;52.520;13.494;2023-02-15T09:21:52;51.05;;;20.25;;
9767;SDS011;4923;52.520;13.494;2023-02-15T09:24:39;52.17;;;20.42;;
9767;SDS011;4923;52.520;13.494;2023-02-15T09:27:26;52.55;;;21.23;;
9767;SDS011;4923;52.520;13.494;2023-02-15T09:30:13;49.03;;;20.52;;
9767;SDS011;4923;52.520;13.494;2023-02-15T09:33:00;53.15;;;21.90;;
9767;SDS011;4923;52.520;13.494;2023-02-15T09:35:47;52.00;;;21.95;;
9767;SDS011;4923;52.520;13.494;2023-02-15T09:38:35;43.80;;;20.35;;
9767;SDS011;4923;52.520;13.494;2023-02-15T09:41:33;43.90;;;19.40;;
9767;SDS011;4923;52.520;13.494;2023-02-15T09:44:59;45.83;;;21.02;;
9767;SDS011;4923;52.520;13.494;2023-02-15T09:48:21;44.33;;;20.17;;
9767;SDS011;4923;52.520;13.494;2023-02-15T09:51:38;45.45;;;19.15;;
9767;SDS011;4923;52.520;13.494;2023-02-15T09:54:45;33.47;;;17.27;;
9767;SDS011;4923;52.520;13.494;2023-02-15T09:57:44;35.70;;;16.85;;
9767;SDS011;4923;52.520;13.494;2023-02-15T10:00:41;42.78;;;19.20;;
9767;SDS011;4923;52.520;13.494;2023-02-15T10:03:42;40.17;;;18.40;;
9767;SDS011;4923;52.520;13.494;2023-02-15T10:06:35;38.15;;;19.15;;
9767;SDS011;4923;52.520;13.494;2023-02-15T10:09:34;29.83;;;16.05;;
9767;SDS011;4923;52.520;13.494;2023-02-15T10:12:36;37.35;;;18.63;;
9767;SDS011;4923;52.520;13.494;2023-02-15T10:15:42;34.15;;;17.08;;
9767;SDS011;4923;52.520;13.494;2023-02-15T10:18:50;36.15;;;17.50;;
9767;SDS011;4923;52.520;13.494;2023-02-15T10:21:45;37.88;;;18.17;;
9767;SDS011;4923;52.520;13.494;2023-02-15T10:24:46;47.95;;;18.80;;
9767;SDS011;4923;52.520;13.494;2023-02-15T10:27:48;33.80;;;18.48;;
9767;SDS011;4923;52.520;13.494;2023-02-15T10:30:38;34.30;;;16.98;;
9767;SDS011;4923;52.520;13.494;2023-02-15T10:33:35;37.83;;;17.17;;
9767;SDS011;4923;52.520;13.494;2023-02-15T10:36:29;31.33;;;16.95;;
9767;SDS011;4923;52.520;13.494;2023-02-15T10:39:27;39.40;;;17.80;;
9767;SDS011;4923;52.520;13.494;2023-02-15T10:42:20;32.60;;;17.83;;
9767;SDS011;4923;52.520;13.494;2023-02-15T10:45:19;33.20;;;17.67;;
9767;SDS011;4923;52.520;13.494;2023-02-15T10:48:21;34.65;;;18.42;;
9767;SDS011;4923;52.520;13.494;2023-02-15T10:51:16;26.90;;;16.38;;
9767;SDS011;4923;52.520;13.494;2023-02-15T10:54:13;32.67;;;16.80;;
9767;SDS011;4923;52.520;13.494;2023-02-15T10:57:10;33.42;;;17.25;;
9767;SDS011;4923;52.520;13.494;2023-02-15T11:00:08;31.00;;;17.13;;
9767;SDS011;4923;52.520;13.494;2023-02-15T11:03:05;36.55;;;17.13;;
9767;SDS011;4923;52.520;13.494;2023-02-15T11:06:06;39.70;;;17.75;;
9767;SDS011;4923;52.520;13.494;2023-02-15T11:08:57;32.63;;;15.38;;
9767;SDS011;4923;52.520;13.494;2023-02-15T11:11:48;28.33;;;16.20;;
9767;SDS011;4923;52.520;13.494;2023-02-15T11:14:40;25.85;;;15.40;;
9767;SDS011;4923;52.520;13.494;2023-02-15T11:17:35;28.77;;;16.50;;
9767;SDS011;4923;52.520;13.494;2023-02-15T11:20:27;31.52;;;15.40;;
9767;SDS011;4923;52.520;13.494;2023-02-15T11:23:18;32.45;;;17.50;;
9767;SDS011;4923;52.520;13.494;2023-02-15T11:26:09;29.35;;;15.88;;
9767;SDS011;4923;52.520;13.494;2023-02-15T11:29:01;33.20;;;14.95;;
9767;SDS011;4923;52.520;13.494;2023-02-15T11:31:54;34.33;;;16.77;;
9767;SDS011;4923;52.520;13.494;2023-02-15T11:34:47;23.50;;;14.43;;
9767;SDS011;4923;52.520;13.494;2023-02-15T11:37:39;21.17;;;14.90;;
9767;SDS011;4923;52.520;13.494;2023-02-15T11:40:32;24.30;;;14.63;;
9767;SDS011;4923;52.520;13.494;2023-02-15T11:43:23;28.75;;;15.25;;
9767;SDS011;4923;52.520;13.494;2023-02-15T11:46:14;23.98;;;14.25;;
9767;SDS011;4923;52.520;13.494;2023-02-15T11:49:01;22.70;;;13.98;;
9767;SDS011;4923;52.520;13.494;2023-02-15T11:51:48;25.90;;;14.55;;
9767;SDS011;4923;52.520;13.494;2023-02-15T11:54:39;26.42;;;14.27;;
9767;SDS011;4923;52.520;13.494;2023-02-15T11:57:31;18.75;;;12.32;;
9767;SDS011;4923;52.520;13.494;2023-02-15T12:00:25;22.30;;;12.82;;
9767;SDS011;4923;52.520;13.494;2023-02-15T12:03:22;24.77;;;13.48;;
9767;SDS011;4923;52.520;13.494;2023-02-15T12:06:16;20.63;;;13.65;;
9767;SDS011;4923;52.520;13.494;2023-02-15T12:09:12;21.27;;;12.98;;
9767;SDS011;4923;52.520;13.494;2023-02-15T12:12:23;23.38;;;12.50;;
9767;SDS011;4923;52.520;13.494;2023-02-15T12:15:13;18.95;;;12.05;;
9767;SDS011;4923;52.520;13.494;2023-02-15T12:18:00;21.92;;;13.57;;
9767;SDS011;4923;52.520;13.494;2023-02-15T12:20:47;17.98;;;11.85;;
9767;SDS011;4923;52.520;13.494;2023-02-15T12:23:39;21.35;;;12.93;;
9767;SDS011;4923;52.520;13.494;2023-02-15T12:26:33;20.08;;;12.30;;
9767;SDS011;4923;52.520;13.494;2023-02-15T12:29:23;20.80;;;13.00;;
9767;SDS011;4923;52.520;13.494;2023-02-15T12:32:16;23.15;;;11.95;;
9767;SDS011;4923;52.520;13.494;2023-02-15T12:35:07;26.15;;;13.25;;
9767;SDS011;4923;52.520;13.494;2023-02-15T12:38:00;20.15;;;11.55;;
9767;SDS011;4923;52.520;13.494;2023-02-15T12:40:56;19.38;;;12.25;;
9767;SDS011;4923;52.520;13.494;2023-02-15T12:43:44;19.90;;;11.82;;
9767;SDS011;4923;52.520;13.494;2023-02-15T12:46:32;22.50;;;12.82;;
9767;SDS011;4923;52.520;13.494;2023-02-15T12:49:19;18.15;;;11.20;;
9767;SDS011;4923;52.520;13.494;2023-02-15T12:52:22;21.20;;;11.40;;
9767;SDS011;4923;52.520;13.494;2023-02-15T12:55:11;18.17;;;11.82;;
9767;SDS011;4923;52.520;13.494;2023-02-15T12:58:06;21.15;;;13.38;;
9767;SDS011;4923;52.520;13.494;2023-02-15T13:01:04;20.65;;;11.93;;
9767;SDS011;4923;52.520;13.494;2023-02-15T13:03:59;23.13;;;12.70;;
9767;SDS011;4923;52.520;13.494;2023-02-15T13:06:50;30.02;;;13.40;;
9767;SDS011;4923;52.520;13.494;2023-02-15T13:09:38;18.35;;;11.52;;
9767;SDS011;4923;52.520;13.494;2023-02-15T13:12:27;20.35;;;12.20;;
9767;SDS011;4923;52.520;13.494;2023-02-15T13:15:22;18.23;;;12.85;;
9767;SDS011;4923;52.520;13.494;2023-02-15T13:18:14;24.92;;;11.52;;
9767;SDS011;4923;52.520;13.494;2023-02-15T13:21:06;23.67;;;12.82;;
9767;SDS011;4923;52.520;13.494;2023-02-15T13:23:58;18.38;;;12.25;;
9767;SDS011;4923;52.520;13.494;2023-02-15T13:26:48;18.70;;;12.45;;
9767;SDS011;4923;52.520;13.494;2023-02-15T13:29:36;18.77;;;12.32;;
9767;SDS011;4923;52.520;13.494;2023-02-15T13:32:25;19.60;;;12.60;;
9767;SDS011;4923;52.520;13.494;2023-02-15T13:35:14;16.58;;;11.15;;
9767;SDS011;4923;52.520;13.494;2023-02-15T13:38:08;21.95;;;13.23;;
9767;SDS011;4923;52.520;13.494;2023-02-15T13:41:00;17.33;;;11.82;;
9767;SDS011;4923;52.520;13.494;2023-02-15T13:43:52;15.80;;;11.15;;
9767;SDS011;4923;52.520;13.494;2023-02-15T13:46:57;21.70;;;12.40;;
9767;SDS011;4923;52.520;13.494;2023-02-15T13:49:56;19.65;;;11.23;;
9767;SDS011;4923;52.520;13.494;2023-02-15T13:52:56;16.90;;;10.90;;
9767;SDS011;4923;52.520;13.494;2023-02-15T13:56:02;20.75;;;11.05;;
9767;SDS011;4923;52.520;13.494;2023-02-15T13:59:06;20.02;;;10.95;;
9767;SDS011;4923;52.520;13.494;2023-02-15T14:02:14;18.85;;;12.00;;
9767;SDS011;4923;52.520;13.494;2023-02-15T14:08:36;19.25;;;11.45;;
9767;SDS011;4923;52.520;13.494;2023-02-15T14:11:35;18.17;;;11.27;;
9767;SDS011;4923;52.520;13.494;2023-02-15T14:14:31;19.25;;;11.25;;
9767;SDS011;4923;52.520;13.494;2023-02-15T14:17:32;15.77;;;11.27;;
9767;SDS011;4923;52.520;13.494;2023-02-15T14:20:34;17.33;;;11.70;;
9767;SDS011;4923;52.520;13.494;2023-02-15T14:23:31;16.30;;;11.43;;
9767;SDS011;4923;52.520;13.494;2023-02-15T14:26:38;21.65;;;12.25;;
9767;SDS011;4923;52.520;13.494;2023-02-15T14:29:42;16.83;;;11.80;;
9767;SDS011;4923;52.520;13.494;2023-02-15T14:32:36;15.50;;;11.13;;
9767;SDS011;4923;52.520;13.494;2023-02-15T14:35:27;20.60;;;13.02;;
9767;SDS011;4923;52.520;13.494;2023-02-15T14:38:18;17.67;;;11.25;;
9767;SDS011;4923;52.520;13.494;2023-02-15T14:41:12;18.98;;;10.95;;
9767;SDS011;4923;52.520;13.494;2023-02-15T14:44:08;20.88;;;11.27;;
9767;SDS011;4923;52.520;13.494;2023-02-15T14:47:03;18.00;;;11.70;;
9767;SDS011;4923;52.520;13.494;2023-02-15T14:49:56;19.75;;;12.02;;
9767;SDS011;4923;52.520;13.494;2023-02-15T14:56:20;16.15;;;11.38;;
9767;SDS011;4923;52.520;13.494;2023-02-15T14:59:13;15.90;;;11.65;;
9767;SDS011;4923;52.520;13.494;2023-02-15T15:02:04;17.08;;;11.15;;
9767;SDS011;4923;52.520;13.494;2023-02-15T15:04:59;18.73;;;11.10;;
9767;SDS011;4923;52.520;13.494;2023-02-15T15:07:52;20.10;;;11.07;;
9767;SDS011;4923;52.520;13.494;2023-02-15T15:10:42;18.63;;;11.45;;
9767;SDS011;4923;52.520;13.494;2023-02-15T15:13:52;19.70;;;12.15;;
9767;SDS011;4923;52.520;13.494;2023-02-15T15:16:48;18.85;;;12.65;;
9767;SDS011;4923;52.520;13.494;2023-02-15T15:26:23;22.77;;;11.85;;
9767;SDS011;4923;52.520;13.494;2023-02-15T15:29:11;15.98;;;10.80;;
9767;SDS011;4923;52.520;13.494;2023-02-15T15:31:59;21.15;;;12.32;;
9767;SDS011;4923;52.520;13.494;2023-02-15T15:34:51;16.80;;;11.23;;
9767;SDS011;4923;52.520;13.494;2023-02-15T15:37:55;21.65;;;11.48;;
9767;SDS011;4923;52.520;13.494;2023-02-15T15:41:14;20.30;;;11.60;;
9767;SDS011;4923;52.520;13.494;2023-02-15T15:47:56;22.10;;;11.00;;
9767;SDS011;4923;52.520;13.494;2023-02-15T15:50:52;19.15;;;10.57;;
9767;SDS011;4923;52.520;13.494;2023-02-15T15:53:41;18.63;;;10.73;;
9767;SDS011;4923;52.520;13.494;2023-02-15T15:56:34;21.35;;;11.65;;
9767;SDS011;4923;52.520;13.494;2023-02-15T15:59:23;18.73;;;10.52;;
9767;SDS011;4923;52.520;13.494;2023-02-15T16:02:13;15.35;;;11.15;;
9767;SDS011;4923;52.520;13.494;2023-02-15T16:05:07;16.90;;;9.52;;
9767;SDS011;4923;52.520;13.494;2023-02-15T16:07:55;15.65;;;10.70;;
9767;SDS011;4923;52.520;13.494;2023-02-15T16:10:42;18.90;;;10.57;;
9767;SDS011;4923;52.520;13.494;2023-02-15T16:13:29;24.20;;;11.93;;
9767;SDS011;4923;52.520;13.494;2023-02-15T16:16:19;23.27;;;10.88;;
9767;SDS011;4923;52.520;13.494;2023-02-15T16:19:14;17.58;;;10.25;;
9767;SDS011;4923;52.520;13.494;2023-02-15T16:22:13;22.45;;;11.05;;
9767;SDS011;4923;52.520;13.494;2023-02-15T16:25:11;26.17;;;11.48;;
9767;SDS011;4923;52.520;13.494;2023-02-15T16:28:20;18.95;;;11.43;;
9767;SDS011;4923;52.520;13.494;2023-02-15T16:31:07;18.98;;;10.73;;
9767;SDS011;4923;52.520;13.494;2023-02-15T16:33:58;20.80;;;11.15;;
9767;SDS011;4923;52.520;13.494;2023-02-15T16:36:45;23.05;;;12.35;;
9767;SDS011;4923;52.520;13.494;2023-02-15T16:39:33;28.08;;;11.35;;
9767;SDS011;4923;52.520;13.494;2023-02-15T16:42:27;21.55;;;11.23;;
9767;SDS011;4923;52.520;13.494;2023-02-15T16:45:15;17.90;;;11.20;;
9767;SDS011;4923;52.520;13.494;2023-02-15T16:48:06;23.40;;;11.48;;
9767;SDS011;4923;52.520;13.494;2023-02-15T16:50:57;21.90;;;11.45;;
9767;SDS011;4923;52.520;13.494;2023-02-15T16:53:45;25.05;;;11.10;;
9767;SDS011;4923;52.520;13.494;2023-02-15T16:56:35;23.70;;;10.90;;
9767;SDS011;4923;52.520;13.494;2023-02-15T16:59:27;26.98;;;11.98;;
9767;SDS011;4923;52.520;13.494;2023-02-15T17:02:18;23.52;;;11.05;;
9767;SDS011;4923;52.520;13.494;2023-02-15T17:05:13;25.52;;;12.68;;
9767;SDS011;4923;52.520;13.494;2023-02-15T17:08:12;17.85;;;10.88;;
9767;SDS011;4923;52.520;13.494;2023-02-15T17:11:08;24.80;;;12.88;;
9767;SDS011;4923;52.520;13.494;2023-02-15T17:14:13;24.00;;;11.80;;
9767;SDS011;4923;52.520;13.494;2023-02-15T17:17:06;32.92;;;12.85;;
9767;SDS011;4923;52.520;13.494;2023-02-15T17:19:58;27.33;;;12.45;;